Time;durP1;ratioP1;P1;durP2;ratioP2;P2;SDS_P1;SDS_P2;PMS_P1;PMS_P2;Temp;Humidity;BMP_temperature;BMP_pressure;BME280_temperature;BME280_humidity;BME280_pressure;Samples;Min_cycle;Max_cycle;Signal;HPM_P1;HPM_P2
2023/09/19 00:02:39;;;;;;;5.25;1.15;;;;;;;18.79;93.48;99927.84;8347750;28;20033;-63
2023/09/19 00:06:39;;;;;;;5.03;1.38;;;;;;;18.75;93.73;99932.06;8354418;28;20061;-64
2023/09/19 00:10:41;;;;;;;7.55;1.58;;;;;;;18.81;93.19;99935.88;8343047;28;20041;-64
2023/09/19 00:14:41;;;;;;;4.13;1.35;;;;;;;18.82;92.64;99927.44;8344436;28;20107;-64
2023/09/19 00:18:42;;;;;;;7.68;1.33;;;;;;;18.89;92.21;99932.94;8345192;28;20045;-64
2023/09/19 00:22:43;;;;;;;4.20;1.33;;;;;;;18.95;92.02;99938.44;8342643;28;20042;-66
2023/09/19 00:26:43;;;;;;;5.72;1.10;;;;;;;18.94;91.85;99936.72;8342417;28;20072;-66
2023/09/19 00:30:45;;;;;;;6.30;1.38;;;;;;;18.96;91.47;99940.13;8335711;28;20045;-66
2023/09/19 00:34:45;;;;;;;6.50;1.20;;;;;;;18.94;91.49;99952.34;8311652;28;20045;-66
2023/09/19 00:38:46;;;;;;;5.75;1.05;;;;;;;18.95;91.17;99938.44;8309736;28;20124;-66
2023/09/19 00:42:48;;;;;;;10.90;1.60;;;;;;;18.92;92.09;99938.88;8311625;28;20411;-66
2023/09/19 00:46:50;;;;;;;5.13;1.52;;;;;;;18.95;91.79;99943.94;8311369;28;20695;-66
2023/09/19 00:50:51;;;;;;;5.57;1.45;;;;;;;19.06;90.42;99951.50;8315864;28;20038;-66
2023/09/19 00:54:52;;;;;;;6.60;1.30;;;;;;;19.09;89.64;99956.56;8342272;28;20128;-62
2023/09/19 00:58:52;;;;;;;6.03;1.52;;;;;;;19.19;88.54;99957.00;8283730;28;20400;-62
2023/09/19 01:02:54;;;;;;;9.82;1.58;;;;;;;19.18;87.74;99966.28;8319259;28;20041;-64
2023/09/19 01:06:55;;;;;;;9.77;1.77;;;;;;;19.18;87.30;99960.81;8340254;28;20040;-64
2023/09/19 01:11:03;;;;;;;6.88;1.35;;;;;;;19.00;88.75;99968.78;8314433;28;20040;-65
2023/09/19 01:15:11;;;;;;;13.05;1.55;;;;;;;19.04;87.99;99975.56;8339933;28;20037;-64
2023/09/19 01:19:39;;;;;;;10.25;1.55;;;;;;;18.96;88.67;99973.00;8307589;28;20034;-64
2023/09/19 01:24:21;;;;;;;5.97;1.38;;;;;;;18.85;89.39;99973.59;8323085;28;20091;-65
2023/09/19 01:28:54;;;;;;;11.13;1.17;;;;;;;18.82;87.35;99982.22;8307083;28;20495;-64
2023/09/19 01:32:54;;;;;;;8.30;1.33;;;;;;;18.78;88.13;99986.44;8342792;28;20070;-66
2023/09/19 01:36:55;;;;;;;6.20;1.40;;;;;;;18.69;88.91;99992.28;8340172;28;20068;-66
2023/09/19 01:41:05;;;;;;;8.98;1.80;;;;;;;18.63;88.17;99993.97;8341457;28;20033;-66
2023/09/19 01:45:12;;;;;;;7.07;1.48;;;;;;;18.63;87.66;100004.91;8341187;28;20039;-61
2023/09/19 01:49:46;;;;;;;5.50;1.58;;;;;;;18.55;87.92;100007.84;8292384;28;20583;-62
2023/09/19 01:53:56;;;;;;;12.73;1.48;;;;;;;18.48;87.93;100004.22;8286435;28;20275;-63
2023/09/19 01:58:08;;;;;;;14.95;1.60;;;;;;;18.42;88.29;100013.25;8283098;28;20541;-62
2023/09/19 02:02:11;;;;;;;7.90;1.40;;;;;;;18.36;88.92;100019.50;8318299;28;20096;-59
2023/09/19 02:06:15;;;;;;;5.72;1.60;;;;;;;18.25;89.56;100028.28;8304953;28;20048;-66
2023/09/19 02:10:16;;;;;;;13.30;1.47;;;;;;;18.26;89.55;100032.72;8293075;28;20268;-62
2023/09/19 02:14:19;;;;;;;7.63;1.55;;;;;;;18.20;89.75;100029.97;8292271;28;20326;-59
2023/09/19 02:18:19;;;;;;;8.93;1.58;;;;;;;18.14;90.41;100031.59;8336129;28;20415;-59
2023/09/19 02:22:21;;;;;;;11.90;1.33;;;;;;;18.09;90.43;100025.88;8338944;28;20109;-64
2023/09/19 02:26:24;;;;;;;8.57;1.40;;;;;;;18.03;91.52;100040.38;8323380;28;20025;-64
2023/09/19 02:30:25;;;;;;;8.65;1.58;;;;;;;17.93;92.02;100045.31;8341773;28;20040;-64
2023/09/19 02:34:27;;;;;;;8.85;1.10;;;;;;;17.89;93.02;100043.19;8338689;28;20107;-64
2023/09/19 02:38:28;;;;;;;8.38;1.83;;;;;;;17.88;92.78;100041.50;8340872;28;20041;-64
2023/09/19 02:42:30;;;;;;;7.80;1.40;;;;;;;17.86;92.33;100049.03;8339354;28;20044;-66
2023/09/19 02:46:30;;;;;;;8.05;1.50;;;;;;;17.84;92.75;100041.03;8336827;28;20114;-66
2023/09/19 02:50:31;;;;;;;11.48;1.95;;;;;;;17.88;92.72;100047.81;8293989;28;20126;-63
2023/09/19 02:54:31;;;;;;;9.85;1.77;;;;;;;17.86;92.68;100047.16;8283717;28;20352;-62
2023/09/19 02:58:35;;;;;;;8.75;1.67;;;;;;;17.80;92.64;100047.09;8313355;28;20103;-67
2023/09/19 03:02:37;;;;;;;7.37;1.33;;;;;;;17.81;92.66;100044.19;8316262;28;20097;-63
2023/09/19 03:06:38;;;;;;;12.57;1.75;;;;;;;17.78;92.48;100041.00;8287840;28;20268;-61
2023/09/19 03:10:39;;;;;;;6.75;1.30;;;;;;;17.69;92.62;100048.53;8327753;28;20041;-63
2023/09/19 03:14:40;;;;;;;8.57;1.35;;;;;;;17.73;92.33;100052.53;8340208;28;20041;-59
2023/09/19 03:18:40;;;;;;;12.43;1.48;;;;;;;17.72;93.11;100061.81;8339525;28;20068;-59
2023/09/19 03:22:41;;;;;;;10.30;1.30;;;;;;;17.66;93.11;100059.00;8336048;28;20046;-59
2023/09/19 03:26:42;;;;;;;10.93;1.48;;;;;;;17.64;92.57;100056.47;8337021;28;20124;-64
2023/09/19 03:30:43;;;;;;;12.07;1.67;;;;;;;17.67;92.48;100056.06;8307970;28;20048;-62
2023/09/19 03:34:44;;;;;;;8.32;1.33;;;;;;;17.67;92.39;100066.13;8280373;28;20063;-63
2023/09/19 03:38:46;;;;;;;6.75;1.70;;;;;;;17.63;92.57;100059.38;8311424;28;20038;-66
2023/09/19 03:42:48;;;;;;;10.13;1.50;;;;;;;17.58;92.24;100062.72;8341757;28;20038;-66
2023/09/19 03:46:48;;;;;;;5.72;1.33;;;;;;;17.55;92.41;100065.84;8345039;28;20043;-60
2023/09/19 03:50:51;;;;;;;11.50;2.75;;;;;;;17.51;92.19;100067.28;8326564;28;20053;-60
2023/09/19 03:54:51;;;;;;;13.38;1.75;;;;;;;17.43;91.76;100070.13;8346265;28;20140;-66
2023/09/19 03:58:52;;;;;;;11.45;1.92;;;;;;;17.51;90.44;100067.28;8342441;28;20041;-66
2023/09/19 04:02:53;;;;;;;14.57;2.65;;;;;;;17.59;89.74;100061.66;8327276;28;20401;-66
2023/09/19 04:06:54;;;;;;;4.80;1.20;;;;;;;17.58;89.49;100059.97;8326090;28;20136;-66
2023/09/19 04:10:54;;;;;;;9.85;1.23;;;;;;;17.56;88.40;100053.84;8341253;28;20072;-66
2023/09/19 04:14:54;;;;;;;9.48;1.45;;;;;;;17.62;86.98;100063.19;8306017;28;20580;-59
2023/09/19 04:18:55;;;;;;;9.05;1.48;;;;;;;17.62;86.57;100064.00;8320176;28;20495;-59
2023/09/19 04:22:55;;;;;;;19.45;1.85;;;;;;;17.60;86.46;100060.63;8310502;28;20052;-60
2023/09/19 04:26:58;;;;;;;7.55;2.28;;;;;;;17.60;85.90;100055.16;8310749;28;20111;-60
2023/09/19 04:30:59;;;;;;;8.00;1.38;;;;;;;17.60;85.47;100055.16;8339217;28;20072;-63
2023/09/19 04:35:03;;;;;;;11.48;2.40;;;;;;;17.62;85.48;100053.06;8285959;28;20071;-60
2023/09/19 04:39:05;;;;;;;14.32;1.95;;;;;;;17.63;84.92;100053.91;8343056;28;20041;-61
2023/09/19 04:43:05;;;;;;;15.05;2.22;;;;;;;17.59;85.09;100058.94;8340154;28;20526;-60
2023/09/19 04:47:06;;;;;;;15.23;2.22;;;;;;;17.56;85.59;100067.50;8311253;28;20433;-60
2023/09/19 04:51:06;;;;;;;8.45;1.60;;;;;;;17.57;85.31;100071.97;8335680;28;20033;-60
2023/09/19 04:55:10;;;;;;;8.80;1.80;;;;;;;17.55;85.57;100069.44;8339024;28;20048;-60
2023/09/19 04:59:11;;;;;;;8.87;1.77;;;;;;;17.53;84.97;100090.63;8304108;28;20045;-60
2023/09/19 05:03:11;;;;;;;9.77;1.48;;;;;;;17.48;85.33;100093.09;8323912;28;20060;-59
2023/09/19 05:07:12;;;;;;;7.07;1.35;;;;;;;17.52;84.93;100093.56;8337754;28;20033;-60
2023/09/19 05:11:12;;;;;;;13.77;1.83;;;;;;;17.53;85.05;100108.91;8338956;28;20495;-60
2023/09/19 05:15:14;;;;;;;5.32;1.55;;;;;;;17.45;85.31;100111.78;8337739;28;20041;-60
2023/09/19 05:19:15;;;;;;;8.80;1.77;;;;;;;17.42;84.81;100114.88;8337185;28;20064;-61
2023/09/19 05:23:16;;;;;;;14.75;1.65;;;;;;;17.43;85.24;100117.44;8333064;28;20025;-60
2023/09/19 05:27:17;;;;;;;12.32;1.65;;;;;;;17.37;85.13;100115.47;8342895;28;20029;-61
2023/09/19 05:31:17;;;;;;;11.57;1.60;;;;;;;17.36;84.40;100123.84;8346031;28;20043;-60
2023/09/19 05:35:17;;;;;;;9.73;2.10;;;;;;;17.38;84.45;100132.69;8335179;28;20041;-59
2023/09/19 05:39:18;;;;;;;9.20;2.30;;;;;;;17.56;84.28;100146.78;8338908;28;20116;-60
2023/09/19 05:43:18;;;;;;;8.93;1.83;;;;;;;17.41;84.11;100143.22;8335096;28;20176;-59
2023/09/19 05:47:20;;;;;;;9.93;2.10;;;;;;;17.40;84.41;100141.53;8335843;28;20079;-60
2023/09/19 05:51:22;;;;;;;20.33;2.58;;;;;;;17.43;85.09;100157.59;8333460;28;20068;-59
2023/09/19 05:55:25;;;;;;;14.07;1.77;;;;;;;17.42;84.69;100156.69;8335731;28;20037;-60
2023/09/19 05:59:26;;;;;;;6.43;1.33;;;;;;;17.42;84.70;100162.16;8336612;28;20442;-59
2023/09/19 06:03:26;;;;;;;11.80;1.73;;;;;;;17.40;84.91;100163.41;8338487;28;21768;-60
2023/09/19 06:07:36;;;;;;;10.25;1.92;;;;;;;17.44;85.15;100167.47;8337509;28;20439;-60
2023/09/19 06:11:37;;;;;;;12.90;2.30;;;;;;;17.44;85.41;100170.22;8318356;28;20045;-60
2023/09/19 06:15:37;;;;;;;9.23;2.10;;;;;;;17.51;84.80;100182.09;8338408;28;20106;-62
2023/09/19 06:19:38;;;;;;;10.57;1.40;;;;;;;17.59;84.80;100190.16;8336911;28;20040;-59
2023/09/19 06:23:39;;;;;;;15.05;2.10;;;;;;;17.67;84.35;100186.44;8336454;28;20047;-59
2023/09/19 06:27:42;;;;;;;15.65;1.63;;;;;;;17.78;84.15;100189.50;8335159;28;20081;-60
2023/09/19 06:31:44;;;;;;;13.18;1.88;;;;;;;17.83;84.13;100197.13;8339607;28;20045;-60
2023/09/19 06:35:46;;;;;;;12.98;1.75;;;;;;;17.88;84.14;100200.13;8337343;28;20052;-59
2023/09/19 06:39:49;;;;;;;9.52;1.58;;;;;;;17.94;83.66;100200.22;8337192;28;20037;-59
2023/09/19 06:43:52;;;;;;;14.43;1.83;;;;;;;18.07;83.82;100205.81;8335640;28;20046;-59
2023/09/19 06:47:57;;;;;;;7.78;2.00;;;;;;;18.21;83.00;100204.84;8338546;28;20045;-63
2023/09/19 06:51:59;;;;;;;10.60;1.70;;;;;;;18.32;82.80;100189.78;8335412;28;20041;-65
2023/09/19 06:55:59;;;;;;;13.43;2.42;;;;;;;18.41;82.16;100197.72;8337690;28;20500;-64
2023/09/19 07:00:01;;;;;;;6.65;2.58;;;;;;;18.48;81.60;100204.06;8335778;28;20033;-64
2023/09/19 07:04:01;;;;;;;11.73;1.75;;;;;;;18.51;81.03;100198.19;8337655;28;20033;-64
2023/09/19 07:08:03;;;;;;;11.80;1.80;;;;;;;18.56;81.07;100206.69;8334002;28;20069;-64
2023/09/19 07:12:04;;;;;;;12.88;1.70;;;;;;;18.81;81.22;100205.16;8336511;28;20370;-64
2023/09/19 07:16:04;;;;;;;7.70;2.00;;;;;;;18.86;80.03;100208.16;8336389;28;20040;-64
2023/09/19 07:20:07;;;;;;;9.63;1.75;;;;;;;18.91;79.79;100200.16;8341094;28;20091;-64
2023/09/19 07:24:08;;;;;;;10.23;2.08;;;;;;;19.10;78.79;100207.66;8343587;28;20402;-63
2023/09/19 07:28:09;;;;;;;14.10;1.80;;;;;;;19.17;77.46;100200.31;8339293;28;20146;-65
2023/09/19 07:32:10;;;;;;;11.70;1.50;;;;;;;19.25;77.05;100202.03;8344230;28;20119;-64
2023/09/19 07:36:13;;;;;;;9.60;1.67;;;;;;;19.31;77.32;100202.06;8340927;28;20403;-64
2023/09/19 07:40:13;;;;;;;10.55;1.75;;;;;;;19.48;76.60;100212.72;8343548;28;20399;-64
2023/09/19 07:44:14;;;;;;;14.45;2.22;;;;;;;19.76;76.54;100216.19;8340900;28;20045;-64
2023/09/19 07:48:15;;;;;;;9.57;2.03;;;;;;;20.03;74.61;100217.94;8342043;28;20042;-64
2023/09/19 07:52:15;;;;;;;6.20;1.20;;;;;;;20.11;74.38;100217.72;8341787;28;20037;-64
2023/09/19 07:56:17;;;;;;;12.07;1.60;;;;;;;20.06;73.35;100223.84;8336558;28;20041;-61
2023/09/19 08:00:18;;;;;;;6.30;1.20;;;;;;;20.02;73.93;100213.47;8346113;28;20047;-61
2023/09/19 08:04:19;;;;;;;12.65;2.00;;;;;;;20.18;74.23;100218.59;8341176;28;20041;-59
2023/09/19 08:08:21;;;;;;;15.63;1.50;;;;;;;20.26;72.68;100223.88;8339505;28;20032;-60
2023/09/19 08:12:22;;;;;;;10.02;1.17;;;;;;;20.27;71.05;100220.09;8339172;28;20048;-60
2023/09/19 08:16:24;;;;;;;12.30;1.30;;;;;;;20.21;71.11;100226.41;8342130;28;20120;-60
2023/09/19 08:20:24;;;;;;;5.32;1.00;;;;;;;20.30;71.37;100227.91;8339877;28;20048;-59
2023/09/19 08:24:28;;;;;;;11.13;1.75;;;;;;;20.46;71.04;100202.78;8340526;28;20044;-59
2023/09/19 08:28:29;;;;;;;8.37;1.33;;;;;;;20.59;70.39;100224.75;8344246;28;20057;-61
2023/09/19 08:32:29;;;;;;;8.90;1.20;;;;;;;20.80;69.92;100228.09;8342623;28;20517;-60
2023/09/19 08:36:30;;;;;;;13.98;1.83;;;;;;;20.88;68.88;100221.53;8341100;28;20446;-60
2023/09/19 08:40:33;;;;;;;10.90;1.40;;;;;;;21.06;67.77;100224.50;8322890;28;20040;-59
2023/09/19 08:44:40;;;;;;;5.20;1.30;;;;;;;21.26;67.81;100217.03;8338991;28;20045;-59
2023/09/19 08:49:04;;;;;;;8.50;1.52;;;;;;;21.59;69.15;100231.50;8341421;28;20094;-59
2023/09/19 08:53:12;;;;;;;7.28;1.98;;;;;;;21.71;65.49;100231.66;8340645;28;20514;-60
2023/09/19 08:57:17;;;;;;;6.07;1.35;;;;;;;21.87;65.27;100233.94;8308662;28;20052;-60
2023/09/19 09:01:24;;;;;;;8.80;1.23;;;;;;;21.93;64.97;100228.41;8341618;28;20037;-59
2023/09/19 09:05:26;;;;;;;5.95;1.30;;;;;;;22.07;62.71;100230.00;8340233;28;20472;-59
2023/09/19 09:09:28;;;;;;;5.50;1.00;;;;;;;22.10;63.32;100236.97;8337481;28;20047;-60
2023/09/19 09:13:29;;;;;;;6.57;1.10;;;;;;;22.12;63.09;100241.19;8338166;28;20034;-60
2023/09/19 09:17:30;;;;;;;9.10;1.42;;;;;;;22.27;62.23;100238.97;8340219;28;20049;-60
2023/09/19 09:21:35;;;;;;;7.57;1.30;;;;;;;22.76;61.68;100227.16;8338175;28;20048;-60
2023/09/19 09:25:54;;;;;;;5.85;1.60;;;;;;;23.81;59.52;100226.78;8337513;28;20041;-59
2023/09/19 09:29:55;;;;;;;13.88;1.40;;;;;;;25.54;57.01;100229.84;8340095;28;20439;-60
2023/09/19 09:33:57;;;;;;;4.60;1.15;;;;;;;25.53;56.00;100223.50;8339951;28;20134;-59
2023/09/19 09:38:06;;;;;;;7.63;1.65;;;;;;;25.62;54.38;100226.72;8338504;28;20045;-60
2023/09/19 09:42:09;;;;;;;4.72;1.27;;;;;;;25.53;54.57;100229.03;8337306;28;20045;-59
2023/09/19 09:50:44;;;;;;;6.97;1.40;;;;;;;25.38;55.41;100230.63;8297904;27;20494;-58
2023/09/19 09:55:05;;;;;;;6.10;1.02;;;;;;;26.16;53.27;100218.69;8298353;28;20048;-59
2023/09/19 09:59:05;;;;;;;6.00;1.58;;;;;;;26.75;53.43;100220.03;8296476;28;20133;-59
2023/09/19 10:03:21;;;;;;;6.38;1.45;;;;;;;27.28;51.10;100208.34;8298526;28;20056;-59
2023/09/19 10:07:28;;;;;;;7.57;1.33;;;;;;;27.36;51.26;100206.00;8299181;28;20073;-59
2023/09/19 10:11:30;;;;;;;3.70;0.82;;;;;;;27.12;50.21;100206.44;8298845;28;20539;-62
2023/09/19 10:15:32;;;;;;;8.07;1.88;;;;;;;26.65;50.97;100201.28;8298121;28;20111;-60
2023/09/19 10:19:46;;;;;;;4.90;1.08;;;;;;;26.98;52.53;100205.13;8299434;28;20048;-63
2023/09/19 10:23:46;;;;;;;;;;;;;;;27.74;48.85;100200.34;8298915;28;20062;-65
2023/09/19 10:27:47;;;;;;;5.33;1.27;;;;;;;27.85;50.30;100195.75;8297627;28;19929;-60
2023/09/19 10:31:48;;;;;;;4.10;1.10;;;;;;;27.56;49.46;100197.06;8293460;28;20536;-59
2023/09/19 10:35:51;;;;;;;4.20;1.35;;;;;;;26.94;50.65;100192.84;8298464;28;20092;-59
2023/09/19 10:39:54;;;;;;;4.50;1.08;;;;;;;26.99;52.20;100173.50;8297591;28;20535;-59
2023/09/19 10:43:57;;;;;;;4.60;1.30;;;;;;;26.82;50.95;100190.16;8299588;28;20494;-61
2023/09/19 10:47:58;;;;;;;6.63;1.20;;;;;;;26.49;50.41;100171.59;8296681;28;20117;-59
2023/09/19 10:52:01;;;;;;;4.15;1.17;;;;;;;26.77;50.29;100176.22;8298859;28;20034;-61
2023/09/19 10:56:10;;;;;;;4.13;1.30;;;;;;;26.78;49.94;100178.72;8297689;28;20540;-61
2023/09/19 11:00:26;;;;;;;3.42;1.35;;;;;;;26.90;50.54;100191.69;8284134;28;20499;-59
2023/09/19 11:04:29;;;;;;;7.47;1.48;;;;;;;27.30;50.19;100181.19;8275061;28;20034;-59
2023/09/19 11:08:51;;;;;;;4.38;1.42;;;;;;;26.98;48.82;100191.25;8274182;28;20403;-58
2023/09/19 11:12:52;;;;;;;5.55;1.38;;;;;;;26.94;49.44;100190.91;8274924;28;20468;-59
2023/09/19 11:25:47;;;;;;;5.22;1.20;;;;;;;26.20;49.45;100203.22;8409904;27;20370;-59
2023/09/19 11:29:49;;;;;;;5.30;1.08;;;;;;;26.43;49.30;100203.09;8368991;28;20390;-59
2023/09/19 11:34:29;;;;;;;3.85;1.00;;;;;;;27.12;49.02;100206.44;8364516;28;20124;-60
2023/09/19 11:42:59;;;;;;;8.98;1.58;;;;;;;27.93;47.45;100192.56;8332797;27;20390;-60
2023/09/19 11:47:03;;;;;;;3.92;1.20;;;;;;;27.85;46.03;100204.09;8332205;28;20416;-59
2023/09/19 11:51:18;;;;;;;4.63;1.25;;;;;;;28.24;46.10;100205.66;8332099;28;20388;-58
2023/09/19 11:55:21;;;;;;;8.10;1.30;;;;;;;28.78;46.54;100196.13;8329949;28;20564;-59
2023/09/19 11:59:22;;;;;;;5.85;1.17;;;;;;;28.46;44.85;100193.41;8330740;28;20037;-59
2023/09/19 12:03:29;;;;;;;5.43;1.25;;;;;;;28.87;45.61;100194.53;8331146;28;20048;-59
2023/09/19 12:07:42;;;;;;;4.00;1.02;;;;;;;29.07;44.93;100199.44;8328870;28;20538;-65
2023/09/19 12:11:44;;;;;;;3.67;1.05;;;;;;;29.23;44.69;100188.13;8331730;28;20592;-65
2023/09/19 12:15:47;;;;;;;4.97;1.30;;;;;;;30.33;43.50;100194.13;8330703;28;20125;-65
2023/09/19 12:19:52;;;;;;;5.13;1.13;;;;;;;29.94;43.35;100190.13;8332584;28;20037;-60
2023/09/19 12:24:06;;;;;;;5.65;1.05;;;;;;;30.28;42.57;100190.50;8326776;28;20064;-59
2023/09/19 12:28:09;;;;;;;6.05;1.25;;;;;;;29.79;43.99;100187.28;8324289;28;20084;-61
2023/09/19 12:32:10;;;;;;;5.32;1.83;;;;;;;29.59;43.47;100176.03;8333344;28;20545;-60
2023/09/19 12:36:29;;;;;;;3.15;1.00;;;;;;;29.07;44.05;100185.53;8329788;28;20439;-59
2023/09/19 12:40:32;;;;;;;2.95;1.60;;;;;;;27.90;45.18;100170.84;8326503;28;20037;-60
2023/09/19 12:44:35;;;;;;;4.07;1.00;;;;;;;26.25;49.06;100172.81;8339157;28;20346;-58
2023/09/19 12:48:37;;;;;;;3.08;0.75;;;;;;;25.43;50.06;100170.66;8328035;28;20082;-58
2023/09/19 12:52:47;;;;;;;8.45;0.82;;;;;;;25.14;51.29;100152.28;8311118;28;20068;-61
2023/09/19 12:56:48;;;;;;;6.18;0.90;;;;;;;25.00;51.14;100143.41;8304544;28;20390;-59
2023/09/19 13:00:51;;;;;;;5.72;0.73;;;;;;;24.82;52.74;100149.09;8304400;28;20048;-60
2023/09/19 13:04:53;;;;;;;5.63;1.00;;;;;;;25.06;52.96;100144.34;8305402;28;20099;-60
2023/09/19 13:09:08;;;;;;;5.95;0.85;;;;;;;25.07;53.06;100135.00;8302645;28;20041;-59
2023/09/19 13:13:27;;;;;;;3.03;0.80;;;;;;;24.82;53.67;100124.19;8302944;28;20109;-59
2023/09/19 13:17:43;;;;;;;7.63;1.55;;;;;;;24.90;53.71;100129.38;8305110;28;20041;-60
2023/09/19 13:21:49;;;;;;;6.10;0.70;;;;;;;24.78;53.53;100124.91;8300289;28;20156;-59
2023/09/19 13:25:49;;;;;;;2.30;0.80;;;;;;;24.55;53.30;100114.69;8299490;28;20539;-58
2023/09/19 13:29:50;;;;;;;8.05;1.05;;;;;;;24.44;53.90;100128.50;8304035;28;20510;-58
2023/09/19 13:33:52;;;;;;;4.65;0.80;;;;;;;24.47;54.35;100133.56;8302315;28;20384;-58
2023/09/19 13:37:52;;;;;;;4.95;0.70;;;;;;;24.72;54.89;100114.81;8306467;28;20041;-59
2023/09/19 13:41:52;;;;;;;3.75;0.70;;;;;;;24.78;54.89;100124.91;8303015;28;20041;-59
2023/09/19 13:45:53;;;;;;;10.07;1.15;;;;;;;24.79;54.23;100116.38;8304878;28;20064;-59
2023/09/19 13:49:53;;;;;;;4.05;0.93;;;;;;;24.36;55.55;100132.47;8304882;28;20678;-65
2023/09/19 13:53:54;;;;;;;4.15;0.50;;;;;;;24.26;55.41;100121.16;8299023;28;20061;-65
2023/09/19 13:57:55;;;;;;;4.50;0.68;;;;;;;24.36;56.16;100131.63;8302753;28;20045;-64
2023/09/19 14:01:57;;;;;;;3.97;0.80;;;;;;;24.16;56.05;100131.13;8299468;28;20434;-65
2023/09/19 14:05:57;;;;;;;4.90;0.80;;;;;;;24.11;56.54;100128.22;8298391;28;20037;-64
2023/09/19 14:09:58;;;;;;;2.22;0.50;;;;;;;24.11;56.19;100139.28;8303275;28;20106;-65
2023/09/19 14:13:58;;;;;;;4.80;0.80;;;;;;;24.10;56.94;100132.91;8302551;28;20241;-65
2023/09/19 14:18:00;;;;;;;5.18;0.75;;;;;;;24.19;56.50;100138.94;8301699;28;20046;-62
2023/09/19 14:22:07;;;;;;;4.80;0.95;;;;;;;24.14;56.89;100130.50;8302944;28;20111;-59
2023/09/19 14:26:09;;;;;;;1.48;0.65;;;;;;;24.21;57.44;100134.84;8298171;28;20100;-59
2023/09/19 14:30:10;;;;;;;3.28;0.43;;;;;;;24.37;57.01;100133.31;8300560;28;20060;-59
2023/09/19 14:34:11;;;;;;;3.08;0.65;;;;;;;24.21;56.58;100137.59;8304005;28;20072;-60
2023/09/19 14:38:11;;;;;;;2.38;0.43;;;;;;;24.27;57.39;100150.47;8303311;28;20045;-65
2023/09/19 14:42:14;;;;;;;1.58;0.60;;;;;;;24.21;57.37;100139.56;8301329;28;20415;-63
2023/09/19 14:46:15;;;;;;;2.78;0.70;;;;;;;24.20;57.16;100135.09;8302482;28;20410;-63
2023/09/19 14:50:16;;;;;;;2.55;0.52;;;;;;;24.02;57.40;100132.41;8299517;28;20266;-60
2023/09/19 14:54:16;;;;;;;2.70;0.60;;;;;;;23.86;57.10;100147.72;8302576;28;20637;-59
2023/09/19 14:58:17;;;;;;;2.97;0.75;;;;;;;23.91;57.44;100138.72;8303626;28;20466;-65
2023/09/19 15:02:19;;;;;;;2.15;0.50;;;;;;;23.89;57.92;100127.06;8303285;28;20045;-59
2023/09/19 15:06:20;;;;;;;3.28;1.05;;;;;;;24.19;57.36;100133.41;8299066;28;20057;-60
2023/09/19 15:10:21;;;;;;;2.20;0.50;;;;;;;24.09;56.85;100141.44;8300875;28;20764;-60
2023/09/19 15:14:22;;;;;;;3.00;0.60;;;;;;;23.92;57.13;100129.34;8302500;28;20049;-59
2023/09/19 15:18:23;;;;;;;1.88;0.50;;;;;;;23.93;57.09;100129.13;8302462;28;20136;-59
2023/09/19 15:22:23;;;;;;;1.35;0.40;;;;;;;23.72;57.01;100123.31;8298313;28;20050;-59
2023/09/19 15:26:25;;;;;;;2.55;0.60;;;;;;;23.68;57.81;100122.06;8297748;28;20552;-59
2023/09/19 15:30:25;;;;;;;2.45;0.45;;;;;;;23.59;58.16;100124.31;8294660;28;20096;-58
2023/09/19 15:34:26;;;;;;;4.90;0.70;;;;;;;23.46;58.00;100123.66;8298067;28;20166;-61
2023/09/19 15:38:28;;;;;;;4.00;0.60;;;;;;;23.49;58.38;100128.72;8277857;28;20069;-59
2023/09/19 15:42:28;;;;;;;4.50;0.65;;;;;;;23.48;58.23;100125.09;8285282;28;20530;-61
2023/09/19 15:46:30;;;;;;;2.85;0.70;;;;;;;23.52;58.04;100125.50;8297544;28;20105;-61
2023/09/19 15:50:31;;;;;;;3.30;0.50;;;;;;;23.65;57.42;100111.50;8300594;28;20053;-63
2023/09/19 15:54:33;;;;;;;2.63;0.70;;;;;;;23.65;57.74;100108.75;8298047;28;20041;-62
2023/09/19 15:58:34;;;;;;;2.35;0.70;;;;;;;23.64;57.93;100107.91;8297136;28;20038;-65
2023/09/19 16:02:35;;;;;;;3.80;0.40;;;;;;;23.55;58.38;100105.72;8295511;28;20041;-62
2023/09/19 16:06:37;;;;;;;4.43;0.98;;;;;;;23.43;58.04;100113.09;8292678;28;20048;-62
2023/09/19 16:10:37;;;;;;;4.63;0.55;;;;;;;23.39;58.89;100114.66;8293049;28;20565;-59
2023/09/19 16:14:38;;;;;;;5.30;0.60;;;;;;;23.33;59.07;100113.66;8295910;28;20486;-60
2023/09/19 16:18:39;;;;;;;3.05;0.50;;;;;;;23.30;59.76;100113.28;8296798;28;20064;-59
2023/09/19 16:22:40;;;;;;;4.10;0.40;;;;;;;23.29;58.96;100117.13;8292993;28;20037;-60
2023/09/19 16:26:40;;;;;;;2.17;0.50;;;;;;;23.25;59.75;100110.38;8293752;28;20091;-60
2023/09/19 16:30:41;;;;;;;3.45;0.52;;;;;;;23.39;60.22;100118.22;8299812;28;20041;-58
2023/09/19 16:34:41;;;;;;;3.58;0.60;;;;;;;23.32;60.02;100119.44;8304694;28;20099;-60
2023/09/19 16:38:43;;;;;;;4.88;0.60;;;;;;;23.17;60.06;100119.78;8304955;28;20073;-59
2023/09/19 16:42:44;;;;;;;5.72;0.80;;;;;;;23.01;59.25;100124.00;8303994;28;20037;-58
2023/09/19 16:46:44;;;;;;;2.40;0.57;;;;;;;22.90;58.76;100123.91;8303249;28;20048;-58
2023/09/19 16:50:45;;;;;;;3.38;0.82;;;;;;;22.77;60.05;100124.94;8273905;28;20591;-61
2023/09/19 16:54:45;;;;;;;3.00;0.55;;;;;;;22.68;61.00;100130.94;8294267;28;20457;-61
2023/09/19 16:58:50;;;;;;;2.35;0.52;;;;;;;22.61;61.08;100120.03;8299228;28;20041;-64
2023/09/19 17:02:51;;;;;;;3.30;0.57;;;;;;;22.51;62.32;100125.19;8299528;28;20190;-64
2023/09/19 17:06:53;;;;;;;4.72;0.77;;;;;;;22.32;62.10;100123.44;8295883;28;20038;-64
2023/09/19 17:11:00;;;;;;;3.28;0.98;;;;;;;22.24;62.16;100137.50;8300174;28;20052;-61
2023/09/19 17:15:01;;;;;;;2.38;0.80;;;;;;;22.11;62.47;100129.34;8301740;28;20038;-60
2023/09/19 17:19:01;;;;;;;2.60;0.50;;;;;;;21.99;63.38;100125.63;8297798;28;20072;-60
2023/09/19 17:23:02;;;;;;;3.28;0.98;;;;;;;21.88;63.34;100125.50;8301945;28;20049;-60
2023/09/19 17:27:03;;;;;;;3.17;0.50;;;;;;;21.83;63.56;100120.66;8301161;28;20034;-60
2023/09/19 17:31:12;;;;;;;2.25;0.60;;;;;;;21.86;64.21;100120.22;8299921;28;20053;-61
2023/09/19 17:35:17;;;;;;;2.78;0.63;;;;;;;21.76;64.33;100125.38;8299142;28;20407;-60
2023/09/19 17:39:19;;;;;;;5.45;0.50;;;;;;;21.67;64.83;100126.69;8297957;28;20180;-62
2023/09/19 17:43:19;;;;;;;4.80;0.75;;;;;;;21.62;64.83;100129.25;8304012;28;20049;-60
2023/09/19 17:47:22;;;;;;;7.30;0.77;;;;;;;21.56;64.89;100123.81;8302730;28;20545;-60
2023/09/19 17:51:23;;;;;;;3.83;0.80;;;;;;;21.52;64.66;100128.88;8301495;28;20048;-60
2023/09/19 17:55:24;;;;;;;8.07;0.98;;;;;;;21.47;64.87;100123.19;8303644;28;20099;-59
2023/09/19 17:59:24;;;;;;;5.72;0.90;;;;;;;21.36;65.29;100123.91;8300557;28;20118;-60
2023/09/19 18:03:25;;;;;;;3.38;1.25;;;;;;;21.35;65.85;100122.22;8300908;28;20128;-60
2023/09/19 18:07:26;;;;;;;5.20;1.10;;;;;;;21.28;66.33;100121.41;8301069;28;20341;-59
2023/09/19 18:11:27;;;;;;;3.20;0.65;;;;;;;21.05;67.51;100143.91;8305437;28;20767;-60
2023/09/19 18:15:32;;;;;;;3.90;0.68;;;;;;;20.86;68.94;100138.47;8302756;28;20215;-60
2023/09/19 18:19:33;;;;;;;3.13;0.88;;;;;;;20.82;69.26;100138.06;8304904;28;20037;-66
2023/09/19 18:23:33;;;;;;;5.47;1.00;;;;;;;20.96;69.36;100141.63;8303695;28;20052;-65
2023/09/19 18:27:35;;;;;;;7.53;2.03;;;;;;;21.08;68.66;100148.16;8300272;28;20037;-65
2023/09/19 18:31:37;;;;;;;8.93;1.35;;;;;;;21.15;69.31;100151.72;8300329;28;20495;-65
2023/09/19 18:35:38;;;;;;;8.73;1.17;;;;;;;21.11;69.57;100147.72;8303152;28;20048;-62
2023/09/19 18:39:38;;;;;;;2.50;0.80;;;;;;;21.15;68.93;100146.22;8304749;28;20042;-61
2023/09/19 18:43:40;;;;;;;2.20;0.95;;;;;;;21.07;69.62;100151.94;8305451;28;20117;-60
2023/09/19 18:47:40;;;;;;;6.60;1.33;;;;;;;21.17;68.56;100153.16;8303340;28;20038;-60
2023/09/19 18:51:42;;;;;;;3.83;0.68;;;;;;;21.18;68.65;100148.53;8298267;28;20049;-65
2023/09/19 18:55:43;;;;;;;8.30;1.58;;;;;;;21.14;68.47;100159.09;8303203;28;20150;-65
2023/09/19 18:59:44;;;;;;;13.23;1.52;;;;;;;21.15;68.73;100159.97;8302166;28;20041;-65
2023/09/19 19:03:46;;;;;;;7.10;1.00;;;;;;;21.17;69.03;100152.34;8300071;28;20428;-64
2023/09/19 19:07:46;;;;;;;8.35;1.00;;;;;;;21.20;68.49;100146.41;8301335;28;20030;-65